AirNav   Pilot Hours Calculator
 
 816 users online  

S74 Lost Isle Seaplane Base
Stockton, California, USA

GOING TO STOCKTON?


FAA INFORMATION EFFECTIVE 26 MARCH 2020

Location

FAA Identifier: S74
Lat/Long: 38-00-14.7200N 121-27-23.8230W
38-00.245333N 121-27.397050W
38.0040889,-121.4566175
(estimated)
Elevation: 0 ft. / 0 m (estimated)
Variation: 16E (1985)
From city: 8 miles NW of STOCKTON, CA
Time zone: UTC -7 (UTC -8 during Standard Time)
Zip code: 95219

Seaplane Base Operations

Seaplane Base use: Open to the public
Control tower: no
ARTCC: OAKLAND CENTER
FSS: RANCHO MURIETA FLIGHT SERVICE STATION
NOTAMs facility: RIU (NOTAM-D service available)
Attendance: UNATTENDED
Pattern altitude: 800 ft. MSL
Wind indicator: no
Segmented circle: no

Seaplane Base Communications

CTAF: 122.9
WX ASOS at SCK (12 nm SE): PHONE 209-982-4270
WX AWOS-3 at C83 (13 nm SW): 123.775 (925-634-0906)
WX AWOS-AV at O88 (16 nm NW): 127.075 (707-374-5396)
WX AWOS-3 at TCY (19 nm S): 118.375 (209-831-4335)

Nearby radio navigation aids

VOR radial/distance  VOR name  Freq  Var
LINr242/21.8LINDEN VOR/DME114.8017E
SACr153/26.8SACRAMENTO VORTAC115.2017E
CCRr078/27.9CONCORD VOR/DME117.0017E
MODr297/32.7MODESTO VOR/DME114.6017E
MCCr167/39.9MC CLELLAN VOR/DME109.2017E
OAKr048/40.0OAKLAND VOR/DME116.8017E

Seaplane Base Services

Airframe service: NONE
Powerplant service: NONE
Bottled oxygen: NONE
Bulk oxygen: NONE

Runway Information

Runway NW/SE

Dimensions: 4000 x 300 ft. / 1219 x 91 m
Surface: water, in good condition
RUNWAY NW  RUNWAY SE
Traffic pattern: leftleft
Markings: nonenone
Runway end identifier lights: nono

Seaplane Base Ownership and Management from official FAA records

Ownership: Publicly-owned
Owner: CALIFORNIA STATE LANDS COMMISSION
100 HOWE AVENUE SUITE 100 SOUTH
SACRAMENTO, CA 95825-8200
Phone 916-574-1900
Manager: MARY HAYS
100 HOWE AVENUE SUITE 100 SOUTH
SACRAMENTO, CA 95825-8200
Phone 916-574-1812

Seaplane Base Operational Statistics

Aircraft operations: 12/year *
100% transient general aviation
* for 12-month period ending 10 October 2018

Additional Remarks

NO OVER NIGHT MOORAGE.
BE ALERT FOR FLOATING DEBRIS.
FOR CD CTC NORCAL APCH AT 916-361-0516.
60 FT PALM TREES 225 FT SW OF APCH END OF SE WATERWAY.
FRQ HOUSEBOATS AND FISHING BOATS ON WATERWAY.

Instrument Procedures

There are no published instrument procedures at S74.

Some nearby airports with instrument procedures:

KSCK - Stockton Metropolitan Airport (12 nm SE)
C83 - Byron Airport (13 nm SW)
1O3 - Lodi Airport (15 nm NE)
O88 - Rio Vista Municipal Airport (16 nm NW)
KTCY - Tracy Municipal Airport (19 nm S)
 
Loc | Ops | Rwys | IFR | FBO | Links
Com | Nav | Svcs | Stats | Notes
Area around S74 (Lost Isle Seaplane Base)
 
Road maps at: MapQuest Bing Google
 
Aerial photo
WARNING: Photo may not be current or correct
Aerial photo of S74 (Lost Isle Seaplane Base)
Photo by www.inflightcamera.com
Photo taken 23-Jun-2006

Do you have a better or more recent aerial photo of Lost Isle Seaplane Base that you would like to share? If so, please send us your photo.

 
Sectional chart

 
Airport distance calculator
Flying to Lost Isle Seaplane Base? Find the distance to fly.

From to S74

Sunrise and sunset
Times for 03-Apr-2020
 Local
(UTC-7)
 Zulu
(UTC)
Morning civil twilight06:2113:21
Sunrise06:4713:47
Sunset19:3002:30
Evening civil twilight19:5702:57

Current date and time
Zulu (UTC)  03-Apr-2020 23:03:59
Local (UTC-7)  03-Apr-2020 16:03:59
 
METAR
KSCK 
13nm SE 
032255Z 31006KT 10SM CLR 21/01 A2996 RMK AO2 SLP145 T02060011
KTCY 
19nm S 
032255Z AUTO 32008G14KT 10SM CLR 20/02 A2997 RMK A01
KLVK 
25nm SW 
032253Z 27008KT 10SM CLR 17/03 A2998 RMK AO2 SLP151 T01720028
TAF
KSCK 
13nm SE 
031732Z 0318/0418 30010KT P6SM SCT250 FM041000 28006KT P6SM BKN150 FM041700 19008KT P6SM -RA OVC035
NOTAMs
Click for the latest NOTAMs
NOTAMs are issued by the DoD/FAA and will open in a separate window not controlled by AirNav.

 

 
 

Would you like to see your business listed on this page?

 If your business provides an interesting product or service to pilots, flight crews, aircraft, or users of the Lost Isle Seaplane Base, you should consider listing it here.  To start the listing process, click on the button below
 
Add a business
 

Other Pages about Lost Isle Seaplane Base

Update a link
 
Copyright © AirNav, LLC. All rights reserved. Privacy Policy  Contact